createdAt,value
2022-09-02T00:01:27.725Z,12.04
2022-09-02T00:04:01.529Z,12.05
2022-09-02T00:06:29.991Z,12.15
2022-09-02T00:08:57.555Z,12.17
2022-09-02T00:11:29.648Z,12.24
2022-09-02T00:13:57.590Z,12.14
2022-09-02T00:16:25.676Z,12.00
2022-09-02T00:18:53.766Z,11.93
2022-09-02T00:21:21.448Z,11.91
2022-09-02T00:23:49.731Z,11.97
2022-09-02T00:26:17.894Z,11.98
2022-09-02T00:28:49.079Z,11.97
2022-09-02T00:31:23.957Z,11.90
2022-09-02T00:33:51.877Z,11.86
2022-09-02T00:36:19.435Z,11.85
2022-09-02T00:38:47.219Z,11.76
2022-09-02T00:41:14.668Z,11.73
2022-09-02T00:43:58.420Z,11.76
2022-09-02T00:46:30.515Z,11.85
2022-09-02T00:49:24.204Z,11.81
2022-09-02T00:52:06.204Z,11.77
2022-09-02T00:54:39.832Z,11.75
2022-09-02T00:57:17.915Z,11.81
2022-09-02T01:00:00.570Z,11.80
2022-09-02T01:02:31.780Z,11.78
2022-09-02T01:05:02.266Z,11.69
2022-09-02T01:07:34.186Z,11.77
2022-09-02T01:10:02.844Z,11.62
2022-09-02T01:12:31.653Z,11.67
2022-09-02T01:14:59.264Z,11.67
2022-09-02T01:17:26.731Z,11.59
2022-09-02T01:19:59.607Z,11.56
2022-09-02T01:22:30.587Z,11.58
2022-09-02T01:25:04.719Z,11.58
2022-09-02T01:27:32.195Z,11.53
2022-09-02T01:30:00.779Z,11.46
2022-09-02T01:32:30.100Z,11.42
2022-09-02T01:34:58.198Z,11.39
2022-09-02T01:37:26.488Z,11.35
2022-09-02T01:39:53.862Z,11.25
2022-09-02T01:42:22.167Z,11.25
2022-09-02T01:44:49.470Z,11.21
2022-09-02T01:47:20.707Z,11.12
2022-09-02T01:49:48.541Z,11.18
2022-09-02T01:52:17.639Z,11.15
2022-09-02T01:54:46.417Z,11.18
2022-09-02T01:57:13.595Z,11.16
2022-09-02T01:59:41.451Z,11.17
2022-09-02T02:02:08.915Z,11.14
2022-09-02T02:04:36.862Z,11.16
2022-09-02T02:07:06.607Z,11.06
2022-09-02T02:09:34.930Z,11.05
2022-09-02T02:12:02.939Z,11.01
2022-09-02T02:14:31.095Z,11.04
2022-09-02T02:16:58.482Z,10.96
2022-09-02T02:19:25.998Z,10.92
2022-09-02T02:21:53.358Z,10.87
2022-09-02T02:24:20.528Z,10.84
2022-09-02T02:26:47.744Z,10.82
2022-09-02T02:29:16.609Z,10.86
2022-09-02T02:31:45.530Z,10.76
2022-09-02T02:34:13.327Z,10.69
2022-09-02T02:36:43.151Z,10.67
2022-09-02T02:39:11.665Z,10.69
2022-09-02T02:41:40.365Z,10.64
2022-09-02T02:44:12.392Z,10.58
2022-09-02T02:46:40.341Z,10.54
2022-09-02T02:49:07.996Z,10.54
2022-09-02T02:51:35.925Z,10.52
2022-09-02T02:54:03.478Z,10.53
2022-09-02T02:56:31.250Z,10.56
2022-09-02T02:59:01.395Z,10.53
2022-09-02T03:01:29.238Z,10.55
2022-09-02T03:03:57.349Z,10.58
2022-09-02T03:06:26.736Z,10.61
2022-09-02T03:08:56.986Z,10.54
2022-09-02T03:11:28.558Z,10.56
2022-09-02T03:13:57.284Z,10.50
2022-09-02T03:16:24.569Z,10.42
2022-09-02T03:18:53.895Z,10.38
2022-09-02T03:21:21.296Z,10.36
2022-09-02T03:23:49.113Z,10.35
2022-09-02T03:26:20.375Z,10.35
2022-09-02T03:28:49.473Z,10.36
2022-09-02T03:31:23.922Z,10.32
2022-09-02T03:33:52.374Z,10.34
2022-09-02T03:36:27.530Z,10.34
2022-09-02T03:38:57.588Z,10.31
2022-09-02T03:41:24.991Z,10.29
2022-09-02T03:43:54.332Z,10.24
2022-09-02T03:46:21.695Z,10.20
2022-09-02T03:48:51.964Z,10.12
2022-09-02T03:51:22.189Z,10.17
2022-09-02T03:53:50.756Z,10.13
2022-09-02T03:56:18.703Z,10.23
2022-09-02T03:58:48.091Z,10.32
2022-09-02T04:01:22.158Z,10.39
2022-09-02T04:03:51.101Z,10.29
2022-09-02T04:06:21.463Z,10.23
2022-09-02T04:08:49.896Z,10.20
2022-09-02T04:11:19.678Z,10.14
2022-09-02T04:13:52.025Z,10.13
2022-09-02T04:16:29.186Z,10.16
2022-09-02T04:19:02.119Z,10.14
2022-09-02T04:21:33.556Z,10.12
2022-09-02T04:24:01.722Z,10.17
2022-09-02T04:26:29.973Z,10.13
2022-09-02T04:28:59.564Z,10.09
2022-09-02T04:31:32.179Z,10.17
2022-09-02T04:34:00.500Z,10.14
2022-09-02T04:36:30.887Z,10.12
2022-09-02T04:39:01.130Z,10.09
2022-09-02T04:41:32.058Z,10.10
2022-09-02T04:44:04.779Z,10.04
2022-09-02T04:46:36.702Z,9.96
2022-09-02T04:49:08.734Z,9.93
2022-09-02T04:51:37.805Z,9.93
2022-09-02T04:54:08.043Z,9.87
2022-09-02T04:56:38.483Z,9.92
2022-09-02T04:59:07.989Z,9.91
2022-09-02T05:01:37.539Z,9.94
2022-09-02T05:04:11.390Z,10.02
2022-09-02T05:06:44.711Z,10.09
2022-09-02T05:09:16.879Z,10.16
2022-09-02T05:11:48.078Z,10.18
2022-09-02T05:14:16.853Z,10.20
2022-09-02T05:16:45.728Z,10.32
2022-09-02T05:19:16.031Z,10.46
2022-09-02T05:21:47.681Z,10.47
2022-09-02T05:24:26.662Z,10.50
2022-09-02T05:26:55.441Z,10.57
2022-09-02T05:29:23.901Z,10.65
2022-09-02T05:31:52.074Z,10.64
2022-09-02T05:34:22.538Z,10.70
2022-09-02T05:36:52.148Z,10.71
2022-09-02T05:39:19.520Z,10.75
2022-09-02T05:41:47.706Z,10.85
2022-09-02T05:44:15.873Z,10.97
2022-09-02T05:46:48.808Z,10.94
2022-09-02T05:49:17.927Z,11.03
2022-09-02T05:51:56.293Z,11.05
2022-09-02T05:54:32.751Z,11.20
2022-09-02T05:57:09.162Z,11.32
2022-09-02T05:59:42.292Z,11.27
2022-09-02T06:02:14.631Z,11.31
2022-09-02T06:04:45.601Z,11.53
2022-09-02T06:07:14.961Z,11.59
2022-09-02T06:09:45.751Z,11.56
2022-09-02T06:12:15.934Z,11.68
2022-09-02T06:14:44.165Z,11.88
2022-09-02T06:17:11.671Z,12.02
2022-09-02T06:19:52.576Z,12.38
2022-09-02T06:22:22.440Z,12.55
2022-09-02T06:24:49.669Z,12.73
2022-09-02T06:27:21.531Z,13.17
2022-09-02T06:29:52.125Z,13.60
2022-09-02T06:32:22.261Z,14.01
2022-09-02T06:34:53.992Z,14.28
2022-09-02T06:37:22.552Z,14.76
2022-09-02T06:39:51.589Z,15.09
2022-09-02T06:42:23.953Z,15.20
2022-09-02T06:45:26.289Z,15.16
2022-09-02T06:47:55.662Z,15.00
2022-09-02T06:50:23.478Z,14.85
2022-09-02T06:52:51.240Z,14.89
2022-09-02T06:55:18.879Z,14.77
2022-09-02T06:57:46.522Z,14.77
2022-09-02T07:00:16.825Z,14.70
2022-09-02T07:03:04.000Z,14.71
2022-09-02T07:05:33.619Z,14.89
2022-09-02T07:08:01.327Z,15.00
2022-09-02T07:10:28.709Z,15.02
2022-09-02T07:12:57.172Z,15.25
2022-09-02T07:15:24.493Z,15.35
2022-09-02T07:17:54.173Z,15.43
2022-09-02T07:20:27.733Z,15.55
2022-09-02T07:22:59.296Z,15.69
2022-09-02T07:25:30.729Z,15.73
2022-09-02T07:27:59.115Z,15.84
2022-09-02T07:30:28.773Z,15.94
2022-09-02T07:33:05.414Z,15.90
2022-09-02T07:35:34.747Z,16.03
2022-09-02T07:38:04.377Z,16.22
2022-09-02T07:40:32.688Z,16.36
2022-09-02T07:43:00.328Z,16.43
2022-09-02T07:45:29.105Z,16.59
2022-09-02T07:47:57.824Z,16.65
2022-09-02T07:50:27.091Z,16.67
2022-09-02T07:52:56.597Z,16.76
2022-09-02T07:55:25.672Z,16.94
2022-09-02T07:57:55.467Z,17.13
2022-09-02T08:00:27.861Z,17.32
2022-09-02T08:03:01.354Z,17.43
2022-09-02T08:05:35.415Z,17.50
2022-09-02T08:08:03.247Z,17.49
2022-09-02T08:10:30.879Z,17.62
2022-09-02T08:13:00.833Z,17.81
2022-09-02T08:15:30.208Z,17.98
2022-09-02T08:17:58.233Z,17.95
2022-09-02T08:20:25.858Z,18.13
2022-09-02T08:23:01.060Z,18.26
2022-09-02T08:25:38.804Z,18.22
2022-09-02T08:28:05.996Z,18.43
2022-09-02T08:30:33.969Z,18.54
2022-09-02T08:33:01.220Z,18.55
2022-09-02T08:35:28.369Z,18.76
2022-09-02T08:37:59.429Z,18.82
2022-09-02T08:40:37.795Z,18.98
2022-09-02T08:43:20.876Z,19.21
2022-09-02T08:45:48.751Z,19.30
2022-09-02T08:48:24.775Z,19.52
2022-09-02T08:50:57.344Z,19.42
2022-09-02T08:53:54.455Z,19.45
2022-09-02T08:56:21.698Z,19.58
2022-09-02T08:58:53.109Z,19.79
2022-09-02T09:01:44.907Z,19.95
2022-09-02T09:04:18.477Z,20.18
2022-09-02T09:07:10.717Z,20.02
2022-09-02T09:09:51.645Z,19.81
2022-09-02T09:12:40.090Z,19.59
2022-09-02T09:15:14.625Z,19.69
2022-09-02T09:17:58.237Z,19.99
2022-09-02T09:20:28.681Z,20.40
2022-09-02T09:22:58.035Z,20.04
2022-09-02T09:25:29.779Z,19.83
2022-09-02T09:27:58.018Z,19.58
2022-09-02T09:30:26.012Z,19.65
2022-09-02T09:32:57.798Z,19.57
2022-09-02T09:35:27.054Z,19.55
2022-09-02T09:37:55.785Z,19.13
2022-09-02T09:40:30.920Z,18.84
2022-09-02T09:43:14.528Z,18.89
2022-09-02T09:45:47.849Z,18.90
2022-09-02T09:48:27.733Z,18.53
2022-09-02T09:50:57.935Z,18.46
2022-09-02T09:53:29.676Z,18.33
2022-09-02T09:56:02.569Z,18.13
2022-09-02T09:58:34.320Z,18.01
2022-09-02T10:01:25.110Z,17.98
2022-09-02T10:03:55.689Z,17.81
2022-09-02T10:06:32.141Z,17.86
2022-09-02T10:08:59.151Z,17.66
2022-09-02T10:11:32.183Z,17.69
2022-09-02T10:14:02.399Z,17.61
2022-09-02T10:17:06.419Z,17.74
2022-09-02T10:19:42.685Z,17.85
2022-09-02T10:22:22.320Z,17.80
2022-09-02T10:25:21.794Z,17.66
2022-09-02T10:27:55.808Z,17.70
2022-09-02T10:30:25.872Z,17.60
2022-09-02T10:33:08.001Z,17.66
2022-09-02T10:35:46.034Z,17.63
2022-09-02T10:38:22.280Z,17.69
2022-09-02T10:40:56.610Z,17.82
2022-09-02T10:43:45.086Z,18.00
2022-09-02T10:46:20.965Z,18.36
2022-09-02T10:49:00.136Z,18.93
2022-09-02T10:51:37.219Z,19.25
2022-09-02T10:54:30.112Z,19.10
2022-09-02T10:57:26.271Z,18.95
2022-09-02T11:00:14.494Z,18.74
2022-09-02T11:02:48.323Z,18.58
2022-09-02T11:05:20.205Z,18.41
2022-09-02T11:07:56.101Z,18.78
2022-09-02T11:10:31.883Z,19.13
2022-09-02T11:13:14.687Z,18.94
2022-09-02T11:16:13.276Z,19.16
2022-09-02T11:19:06.761Z,18.95
2022-09-02T11:22:01.444Z,19.06
2022-09-02T11:24:55.409Z,18.96
2022-09-02T11:27:43.823Z,18.94
2022-09-02T11:30:18.287Z,18.83
2022-09-02T11:33:28.663Z,18.98
2022-09-02T11:35:58.785Z,19.06
2022-09-02T11:38:35.112Z,19.33
2022-09-02T11:41:36.300Z,19.45
2022-09-02T11:44:43.707Z,19.87
2022-09-02T11:47:49.376Z,19.88
2022-09-02T11:50:35.810Z,20.13
2022-09-02T11:53:20.564Z,19.88
2022-09-02T11:55:56.321Z,19.69
2022-09-02T11:58:41.800Z,19.49
2022-09-02T12:01:14.866Z,19.31
2022-09-02T12:07:08.655Z,19.16
2022-09-02T12:12:37.392Z,19.23
2022-09-02T12:15:05.506Z,19.03
2022-09-02T12:17:40.086Z,18.93
2022-09-02T12:20:11.906Z,18.96
2022-09-02T12:22:40.256Z,18.87
2022-09-02T12:25:26.749Z,18.91
2022-09-02T12:28:30.698Z,19.08
2022-09-02T12:31:03.930Z,19.30
2022-09-02T12:33:35.068Z,19.25
2022-09-02T12:36:05.210Z,19.25
2022-09-02T12:38:40.062Z,19.08
2022-09-02T12:41:13.093Z,19.26
2022-09-02T12:43:47.994Z,19.68
2022-09-02T12:46:28.981Z,20.13
2022-09-02T12:49:03.113Z,20.29
2022-09-02T12:51:51.872Z,20.42
2022-09-02T12:54:26.452Z,20.26
2022-09-02T12:56:53.826Z,19.65
2022-09-02T12:59:35.715Z,19.22
2022-09-02T13:02:21.330Z,18.89
2022-09-02T13:05:15.658Z,18.65
2022-09-02T13:07:59.681Z,18.75
2022-09-02T13:10:58.209Z,18.82
2022-09-02T13:13:56.614Z,18.88
2022-09-02T13:16:37.502Z,18.92
2022-09-02T13:19:17.028Z,18.91
2022-09-02T13:22:18.786Z,18.97
2022-09-02T13:25:13.635Z,19.05
2022-09-02T13:27:50.494Z,18.80
2022-09-02T13:30:22.295Z,18.75
2022-09-02T13:33:00.008Z,18.64
2022-09-02T13:35:28.603Z,18.51
2022-09-02T13:38:00.720Z,18.46
2022-09-02T13:40:38.947Z,18.54
2022-09-02T13:43:12.298Z,18.62
2022-09-02T13:45:40.123Z,18.54
2022-09-02T13:48:09.954Z,18.69
2022-09-02T13:50:42.334Z,18.62
2022-09-02T13:56:05.839Z,18.40
2022-09-02T13:58:44.200Z,18.40
2022-09-02T14:01:32.788Z,18.50
2022-09-02T14:04:09.851Z,18.65
2022-09-02T14:06:40.558Z,19.03
2022-09-02T14:09:20.364Z,19.49
2022-09-02T14:11:49.603Z,19.67
2022-09-02T14:14:21.379Z,19.60
2022-09-02T14:16:48.611Z,19.55
2022-09-02T14:19:18.487Z,19.40
2022-09-02T14:21:52.981Z,19.36
2022-09-02T14:24:23.350Z,19.15
2022-09-02T14:26:56.250Z,19.08
2022-09-02T14:29:24.784Z,18.97
2022-09-02T14:32:29.397Z,18.81
2022-09-02T14:35:09.116Z,18.60
2022-09-02T14:37:57.678Z,18.40
2022-09-02T14:40:36.876Z,18.38
2022-09-02T14:43:05.107Z,18.38
2022-09-02T14:45:34.372Z,18.29
2022-09-02T14:48:20.162Z,18.22
2022-09-02T14:50:47.613Z,18.19
2022-09-02T14:53:23.062Z,18.28
2022-09-02T14:55:53.205Z,18.28
2022-09-02T14:58:27.025Z,18.21
2022-09-02T15:00:58.827Z,18.24
2022-09-02T15:03:26.944Z,18.27
2022-09-02T15:05:54.191Z,18.18
2022-09-02T15:08:22.062Z,18.13
2022-09-02T15:10:49.574Z,18.10
2022-09-02T15:13:33.815Z,18.05
2022-09-02T15:16:02.889Z,18.10
2022-09-02T15:18:30.661Z,18.14
2022-09-02T15:20:57.995Z,18.24
2022-09-02T15:23:25.486Z,18.26
2022-09-02T15:25:54.180Z,18.32
2022-09-02T15:28:21.520Z,18.43
2022-09-02T15:30:48.753Z,18.48
2022-09-02T15:33:17.593Z,18.38
2022-09-02T15:35:47.374Z,18.47
2022-09-02T15:38:14.899Z,18.51
2022-09-02T15:40:42.224Z,18.62
2022-09-02T15:43:09.427Z,18.62
2022-09-02T15:45:46.576Z,18.53
2022-09-02T15:48:14.895Z,18.47
2022-09-02T15:50:42.959Z,18.35
2022-09-02T15:53:15.432Z,18.45
2022-09-02T15:55:42.658Z,18.33
2022-09-02T15:58:10.267Z,18.26
2022-09-02T16:00:37.870Z,18.12
2022-09-02T16:03:05.118Z,18.02
2022-09-02T16:05:32.439Z,18.01
2022-09-02T16:07:59.965Z,17.85
2022-09-02T16:10:27.295Z,17.76
2022-09-02T16:12:54.574Z,17.80
2022-09-02T16:15:21.681Z,17.75
2022-09-02T16:17:50.977Z,17.66
2022-09-02T16:20:21.275Z,17.64
2022-09-02T16:22:49.168Z,17.59
2022-09-02T16:25:16.555Z,17.54
2022-09-02T16:27:52.872Z,17.46
2022-09-02T16:30:20.036Z,17.43
2022-09-02T16:32:50.979Z,17.50
2022-09-02T16:35:18.265Z,17.50
2022-09-02T16:37:45.683Z,17.46
2022-09-02T16:40:21.187Z,17.46
2022-09-02T16:42:49.256Z,17.52
2022-09-02T16:45:16.569Z,17.51
2022-09-02T16:47:43.779Z,17.56
2022-09-02T16:50:12.631Z,17.58
2022-09-02T16:52:41.140Z,17.47
2022-09-02T16:55:09.067Z,17.44
2022-09-02T16:57:36.246Z,17.38
2022-09-02T17:00:04.954Z,17.35
2022-09-02T17:02:32.304Z,17.24
2022-09-02T17:04:59.876Z,17.22
2022-09-02T17:07:27.146Z,17.12
2022-09-02T17:09:54.483Z,17.10
2022-09-02T17:12:21.890Z,17.08
2022-09-02T17:14:49.063Z,17.02
2022-09-02T17:17:17.272Z,17.00
2022-09-02T17:19:44.449Z,16.89
2022-09-02T17:22:11.762Z,16.84
2022-09-02T17:24:41.927Z,16.70
2022-09-02T17:27:09.403Z,16.60
2022-09-02T17:29:52.165Z,16.52
2022-09-02T17:32:24.093Z,16.50
2022-09-02T17:34:51.531Z,16.37
2022-09-02T17:37:20.217Z,16.31
2022-09-02T17:39:48.455Z,16.42
2022-09-02T17:42:16.163Z,16.30
2022-09-02T17:44:43.448Z,16.25
2022-09-02T17:47:15.206Z,16.31
2022-09-02T17:49:44.409Z,16.28
2022-09-02T17:52:30.260Z,16.36
2022-09-02T17:54:57.528Z,16.32
2022-09-02T17:57:50.487Z,16.26
2022-09-02T18:00:22.471Z,16.19
2022-09-02T18:02:50.962Z,16.19
2022-09-02T18:05:36.771Z,16.14
2022-09-02T18:08:15.552Z,16.11
2022-09-02T18:10:58.355Z,16.07
2022-09-02T18:13:48.791Z,16.09
2022-09-02T18:16:33.787Z,16.06
2022-09-02T18:19:25.333Z,15.91
2022-09-02T18:22:37.229Z,16.04
2022-09-02T18:25:21.310Z,15.98
2022-09-02T18:27:52.509Z,15.96
2022-09-02T18:30:25.961Z,15.89
2022-09-02T18:33:38.340Z,15.87
2022-09-02T18:36:29.708Z,15.84
2022-09-02T18:39:49.366Z,15.78
2022-09-02T18:42:39.342Z,15.84
2022-09-02T18:45:56.698Z,15.84
2022-09-02T18:48:31.407Z,15.88
2022-09-02T18:51:09.985Z,15.80
2022-09-02T18:53:43.450Z,15.77
2022-09-02T18:56:12.838Z,15.83
2022-09-02T18:58:48.797Z,15.84
2022-09-02T19:01:24.337Z,15.80
2022-09-02T19:03:51.984Z,15.82
2022-09-02T19:06:22.669Z,15.77
2022-09-02T19:08:58.556Z,15.76
2022-09-02T19:11:27.386Z,15.74
2022-09-02T19:14:02.846Z,15.75
2022-09-02T19:16:34.332Z,15.63
2022-09-02T19:19:01.637Z,15.57
2022-09-02T19:21:46.229Z,15.55
2022-09-02T19:24:21.441Z,15.55
2022-09-02T19:26:49.211Z,15.49
2022-09-02T19:29:17.633Z,15.50
2022-09-02T19:31:48.335Z,15.48
2022-09-02T19:34:17.209Z,15.45
2022-09-02T19:36:48.809Z,15.46
2022-09-02T19:39:16.263Z,15.42
2022-09-02T19:41:43.479Z,15.35
2022-09-02T19:44:12.719Z,15.35
2022-09-02T19:47:30.769Z,15.27
2022-09-02T19:49:29.005Z,15.27
2022-09-02T19:51:56.749Z,15.18
2022-09-02T19:54:24.038Z,15.19
2022-09-02T19:56:51.593Z,15.16
2022-09-02T19:59:18.785Z,15.23
2022-09-02T20:01:46.540Z,15.20
2022-09-02T20:04:13.886Z,15.16
2022-09-02T20:06:41.379Z,15.10
2022-09-02T20:09:08.640Z,15.10
2022-09-02T20:11:37.108Z,14.99
2022-09-02T20:14:06.364Z,15.04
2022-09-02T20:16:34.388Z,15.02
2022-09-02T20:19:02.503Z,14.93
2022-09-02T20:21:36.916Z,14.85
2022-09-02T20:24:08.220Z,14.82
2022-09-02T20:26:41.135Z,14.80
2022-09-02T20:29:29.998Z,14.80
2022-09-02T20:32:05.910Z,14.82
2022-09-02T20:34:45.433Z,14.78
2022-09-02T20:37:20.193Z,14.75
2022-09-02T20:40:11.692Z,14.78
2022-09-02T20:43:01.081Z,14.81
2022-09-02T20:45:38.477Z,14.73
2022-09-02T20:48:27.729Z,14.63
2022-09-02T20:51:01.812Z,14.67
2022-09-02T20:54:05.481Z,14.67
2022-09-02T20:56:32.946Z,14.59
2022-09-02T20:59:19.295Z,14.61
2022-09-02T21:01:49.093Z,14.61
2022-09-02T21:04:25.344Z,14.64
2022-09-02T21:07:01.257Z,14.53
2022-09-02T21:10:10.264Z,14.48
2022-09-02T21:12:50.625Z,14.57
2022-09-02T21:15:35.423Z,14.60
2022-09-02T21:18:20.746Z,14.68
2022-09-02T21:20:55.789Z,14.66
2022-09-02T21:23:34.039Z,14.66
2022-09-02T21:26:14.195Z,14.71
2022-09-02T21:28:48.811Z,14.70
2022-09-02T21:31:33.239Z,14.66
2022-09-02T21:34:15.535Z,14.60
2022-09-02T21:36:43.337Z,14.59
2022-09-02T21:39:16.791Z,14.55
2022-09-02T21:41:55.982Z,14.61
2022-09-02T21:44:40.591Z,14.54
2022-09-02T21:47:22.363Z,14.50
2022-09-02T21:50:05.680Z,14.48
2022-09-02T21:53:02.096Z,14.49
2022-09-02T21:55:48.829Z,14.51
2022-09-02T21:58:48.094Z,14.46
2022-09-02T22:02:01.366Z,14.50
2022-09-02T22:04:53.293Z,14.46
2022-09-02T22:07:31.579Z,14.46
2022-09-02T22:10:11.210Z,14.42
2022-09-02T22:12:42.704Z,14.31
2022-09-02T22:15:18.299Z,14.27
2022-09-02T22:17:56.177Z,14.29
2022-09-02T22:20:28.991Z,14.24
2022-09-02T22:23:04.462Z,14.12
2022-09-02T22:25:34.110Z,14.21
2022-09-02T22:28:12.388Z,14.19
2022-09-02T22:30:46.696Z,14.10
2022-09-02T22:33:19.594Z,14.18
2022-09-02T22:36:09.625Z,14.01
2022-09-02T22:38:47.032Z,13.92
2022-09-02T22:41:20.104Z,13.77
2022-09-02T22:43:50.322Z,13.77
2022-09-02T22:46:46.237Z,13.75
2022-09-02T22:49:51.117Z,13.69
2022-09-02T22:52:54.969Z,13.52
2022-09-02T22:55:26.588Z,13.41
2022-09-02T22:58:08.829Z,13.38
2022-09-02T23:00:57.585Z,13.32
2022-09-02T23:04:13.272Z,13.43
2022-09-02T23:06:40.471Z,13.42
2022-09-02T23:09:11.534Z,13.47
2022-09-02T23:11:47.658Z,13.47
2022-09-02T23:14:41.150Z,13.47
2022-09-02T23:17:20.828Z,13.58
2022-09-02T23:20:02.843Z,13.55
2022-09-02T23:22:49.075Z,13.59
2022-09-02T23:25:42.106Z,13.63
2022-09-02T23:28:31.226Z,13.64
2022-09-02T23:31:12.358Z,13.71
2022-09-02T23:33:51.096Z,13.73
2022-09-02T23:36:44.026Z,13.78
2022-09-02T23:39:44.411Z,13.74
2022-09-02T23:42:12.731Z,13.77
2022-09-02T23:44:39.925Z,13.82
2022-09-02T23:47:40.599Z,13.84
2022-09-02T23:50:37.835Z,13.83
2022-09-02T23:53:11.838Z,13.80
2022-09-02T23:56:07.502Z,13.75
2022-09-02T23:58:47.790Z,13.82
